Time;durP1;ratioP1;P1;durP2;ratioP2;P2;SDS_P1;SDS_P2;PMS_P1;PMS_P2;Temp;Humidity;BMP_temperature;BMP_pressure;BME280_temperature;BME280_humidity;BME280_pressure;Samples;Min_cycle;Max_cycle;Signal;HPM_P1;HPM_P2
2022/02/09 00:01:58;;;;;;;4.17;4.07;;;9.60;99.90;;;;;;4915851;29;20481;-84
2022/02/09 00:07:41;;;;;;;4.50;4.10;;;9.60;99.90;;;;;;4868308;29;20769;-83
2022/02/09 00:10:17;;;;;;;5.57;3.90;;;9.60;99.90;;;;;;4865223;29;20265;-84
2022/02/09 00:18:32;;;;;;;4.33;4.10;;;9.60;99.90;;;;;;4872892;29;20203;-85
2022/02/09 00:40:44;;;;;;;3.50;3.40;;;9.50;99.90;;;;;;4924851;29;20430;-83
2022/02/09 00:42:48;;;;;;;2.25;2.25;;;9.60;99.90;;;;;;4914658;29;20506;-83
2022/02/09 01:33:00;;;;;;;2.30;2.30;;;9.60;99.90;;;;;;4920555;29;20222;-83
2022/02/09 01:51:15;;;;;;;2.38;1.40;;;9.10;99.90;;;;;;4924349;29;20247;-82
2022/02/09 01:56:26;;;;;;;1.80;1.80;;;9.20;99.90;;;;;;4925785;29;20477;-83
2022/02/09 01:58:52;;;;;;;1.33;1.33;;;9.20;99.90;;;;;;4920636;29;20439;-83
2022/02/09 02:01:17;;;;;;;1.50;1.50;;;9.30;99.90;;;;;;4916288;29;20816;-84
2022/02/09 02:03:46;;;;;;;2.27;1.80;;;9.30;99.90;;;;;;4921548;29;20323;-84
2022/02/09 02:06:17;;;;;;;3.10;3.00;;;9.40;99.90;;;;;;4906714;29;20567;-84
2022/02/09 02:08:48;;;;;;;3.20;3.13;;;8.50;99.90;;;;;;4919885;29;20666;-84
2022/02/09 02:11:24;;;;;;;4.00;3.90;;;9.00;99.90;;;;;;4923475;29;20270;-84
2022/02/09 02:14:14;;;;;;;5.37;4.87;;;9.30;99.90;;;;;;4918256;29;20485;-83
2022/02/09 02:19:42;;;;;;;5.82;5.50;;;8.50;99.90;;;;;;4923377;29;20972;-84
2022/02/09 02:22:26;;;;;;;5.27;4.97;;;9.40;99.90;;;;;;4920716;29;20295;-83
2022/02/09 02:28:09;;;;;;;5.28;4.97;;;9.20;99.90;;;;;;4920331;29;20198;-83
2022/02/09 02:33:20;;;;;;;6.13;5.77;;;9.30;99.90;;;;;;4927772;29;20573;-83
2022/02/09 02:36:08;;;;;;;7.03;6.43;;;9.20;99.90;;;;;;4900437;29;20184;-83
2022/02/09 02:47:17;;;;;;;6.72;6.20;;;9.10;99.90;;;;;;4918569;29;20525;-83
2022/02/09 03:14:11;;;;;;;8.00;7.50;;;9.20;99.90;;;;;;4911849;29;20207;-85
2022/02/09 03:17:01;;;;;;;7.40;6.90;;;9.10;99.90;;;;;;4922047;29;20996;-84
2022/02/09 03:53:56;;;;;;;11.10;10.20;;;9.40;99.90;;;;;;4916827;29;20304;-85
2022/02/09 03:58:51;;;;;;;9.88;9.05;;;9.40;99.90;;;;;;4923903;29;20812;-84
2022/02/09 04:01:44;;;;;;;10.67;9.67;;;10.20;99.90;;;;;;4917362;29;20253;-83
2022/02/09 04:04:22;;;;;;;9.07;8.40;;;9.40;99.90;;;;;;4911162;29;20439;-84
2022/02/09 04:06:50;;;;;;;7.07;6.37;;;9.40;99.90;;;;;;4919133;29;20468;-83
2022/02/09 04:09:19;;;;;;;8.27;7.53;;;9.40;99.90;;;;;;4909330;29;20450;-84
2022/02/09 04:14:37;;;;;;;9.20;8.37;;;9.10;99.90;;;;;;4925320;29;20490;-84
2022/02/09 04:19:31;;;;;;;10.43;9.43;;;9.10;99.90;;;;;;4922471;29;20583;-83
2022/02/09 04:52:40;;;;;;;15.52;11.20;;;8.80;99.90;;;;;;4922370;29;20503;-83
2022/02/09 04:54:57;;;;;;;14.20;12.00;;;8.70;99.90;;;;;;4908048;29;20270;-83
2022/02/09 05:00:11;;;;;;;12.80;11.50;;;8.90;99.90;;;;;;4923628;29;20451;-83
2022/02/09 05:24:18;;;;;;;4.57;4.17;;;8.90;99.90;;;;;;4925241;29;20455;-83
2022/02/09 05:27:02;;;;;;;5.40;5.13;;;10.40;99.90;;;;;;4927486;29;20179;-83
2022/02/09 05:29:28;;;;;;;6.13;5.83;;;8.90;99.90;;;;;;4898776;29;21000;-84
2022/02/09 05:31:54;;;;;;;6.03;5.53;;;9.10;99.90;;;;;;4900326;29;20567;-84
2022/02/09 05:34:20;;;;;;;6.37;6.00;;;9.10;99.90;;;;;;4918764;29;20199;-84
2022/02/09 05:36:45;;;;;;;6.90;6.50;;;9.10;99.90;;;;;;4911347;29;20195;-83
2022/02/09 05:39:12;;;;;;;6.33;5.93;;;9.10;99.90;;;;;;4927070;29;20577;-82
2022/02/09 05:41:43;;;;;;;7.10;6.60;;;8.50;99.90;;;;;;4924319;29;20202;-82
2022/02/09 05:44:10;;;;;;;8.43;7.40;;;9.10;99.90;;;;;;4927079;29;20210;-81
2022/02/09 05:49:42;;;;;;;6.03;5.50;;;9.00;99.90;;;;;;4908644;29;20495;-82
2022/02/09 05:53:18;;;;;;;5.67;5.27;;;9.20;99.90;;;;;;4918911;29;20210;-82
2022/02/09 05:55:53;;;;;;;5.93;5.63;;;9.20;99.90;;;;;;4898349;29;20459;-82
2022/02/09 05:58:07;;;;;;;4.95;4.75;;;9.10;99.90;;;;;;4914566;29;20210;-82
2022/02/09 06:00:33;;;;;;;4.10;3.90;;;9.10;99.90;;;;;;4929090;29;20539;-82
2022/02/09 06:03:01;;;;;;;4.27;4.03;;;9.10;99.90;;;;;;4903600;29;20546;-84
2022/02/09 06:05:27;;;;;;;4.13;3.93;;;9.20;99.90;;;;;;4919860;29;20205;-88
2022/02/09 06:07:53;;;;;;;3.17;3.00;;;9.30;99.90;;;;;;4916090;29;20419;-82
2022/02/09 06:10:23;;;;;;;3.70;3.60;;;8.80;99.90;;;;;;4927788;29;20728;-83
2022/02/09 06:12:55;;;;;;;4.45;4.25;;;9.20;99.90;;;;;;4907123;29;20479;-82
2022/02/09 06:20:44;;;;;;;4.20;4.00;;;9.30;99.90;;;;;;4926068;29;20516;-83
2022/02/09 06:23:10;;;;;;;5.55;4.30;;;8.90;99.90;;;;;;4920053;29;20586;-84
2022/02/09 06:25:36;;;;;;;4.30;4.00;;;9.90;99.90;;;;;;4924596;29;20250;-84
2022/02/09 06:28:07;;;;;;;5.80;5.50;;;9.40;99.90;;;;;;4921195;29;20191;-85
2022/02/09 06:30:33;;;;;;;5.40;5.10;;;9.40;99.90;;;;;;4919204;29;20183;-84
2022/02/09 06:32:59;;;;;;;6.23;5.60;;;9.40;99.90;;;;;;4918414;29;20566;-83
2022/02/09 06:35:25;;;;;;;5.13;4.83;;;11.60;99.90;;;;;;4922657;29;20861;-85
2022/02/09 06:37:51;;;;;;;5.47;5.17;;;9.30;99.90;;;;;;4926739;29;20187;-85
2022/02/09 06:40:19;;;;;;;6.87;6.27;;;10.40;99.90;;;;;;4923760;29;20191;-86
2022/02/09 06:42:44;;;;;;;7.25;6.65;;;9.60;99.90;;;;;;4920015;29;20451;-84
2022/02/09 06:45:18;;;;;;;9.03;8.10;;;8.50;99.90;;;;;;4909027;29;20254;-84
2022/02/09 06:47:46;;;;;;;7.60;6.70;;;10.30;99.90;;;;;;4910813;29;20183;-84
2022/02/09 06:50:23;;;;;;;7.13;6.70;;;9.20;99.90;;;;;;4905501;29;20462;-84
2022/02/09 06:53:00;;;;;;;8.83;8.17;;;9.20;99.90;;;;;;4908505;29;21152;-83
2022/02/09 06:55:26;;;;;;;8.33;7.73;;;9.00;99.90;;;;;;4239095;29;10000628;-83
2022/02/09 07:00:23;;;;;;;8.13;7.53;;;10.50;99.90;;;;;;4922766;29;20195;-86
2022/02/09 07:02:50;;;;;;;9.53;8.57;;;9.20;99.90;;;;;;4909758;29;20199;-84
2022/02/09 07:05:16;;;;;;;8.27;7.60;;;9.10;99.90;;;;;;4918518;29;20463;-84
2022/02/09 07:07:42;;;;;;;9.68;8.88;;;10.50;99.90;;;;;;4908276;29;20438;-84
2022/02/09 07:10:09;;;;;;;9.00;8.10;;;9.10;99.90;;;;;;4919315;29;20567;-83
2022/02/09 07:12:35;;;;;;;7.87;7.10;;;9.20;99.90;;;;;;4908834;29;20475;-83
2022/02/09 07:15:02;;;;;;;9.87;7.30;;;9.30;99.90;;;;;;4902337;29;20447;-84
2022/02/09 07:17:28;;;;;;;6.83;6.40;;;8.80;99.90;;;;;;4908883;29;20447;-84
2022/02/09 07:19:58;;;;;;;7.20;6.50;;;9.30;99.90;;;;;;4923391;29;20438;-83
2022/02/09 07:22:26;;;;;;;8.83;7.60;;;9.40;99.90;;;;;;4910643;29;20439;-84
2022/02/09 07:25:07;;;;;;;7.80;7.10;;;9.30;99.90;;;;;;4923491;29;20530;-83
2022/02/09 07:27:47;;;;;;;6.97;6.50;;;10.70;99.90;;;;;;4907904;29;20819;-84
2022/02/09 07:30:13;;;;;;;7.50;6.50;;;9.40;99.90;;;;;;4897631;29;20452;-83
2022/02/09 07:32:39;;;;;;;8.77;8.10;;;9.40;99.90;;;;;;4925820;29;20219;-82
2022/02/09 07:35:05;;;;;;;7.93;7.33;;;9.40;99.90;;;;;;4899497;29;21114;-84
2022/02/09 07:37:30;;;;;;;8.97;8.17;;;9.50;99.90;;;;;;4908148;29;20213;-83
2022/02/09 07:39:58;;;;;;;7.40;6.80;;;9.40;99.90;;;;;;4914330;29;20974;-82
2022/02/09 07:42:27;;;;;;;8.03;6.90;;;9.40;99.90;;;;;;4909893;29;20599;-85
2022/02/09 07:45:26;;;;;;;7.88;7.18;;;8.60;99.90;;;;;;4900340;29;20443;-82
2022/02/09 07:51:13;;;;;;;9.05;8.30;;;9.60;99.90;;;;;;4885133;29;20270;-83
2022/02/09 07:53:58;;;;;;;8.00;7.40;;;9.40;99.90;;;;;;4923751;29;20227;-83
2022/02/09 07:56:41;;;;;;;9.17;8.47;;;9.20;99.90;;;;;;4912814;29;20305;-83
2022/02/09 07:59:11;;;;;;;10.13;9.23;;;9.50;99.90;;;;;;4920667;29;20470;-84
2022/02/09 08:01:38;;;;;;;11.63;8.73;;;11.50;99.90;;;;;;4905620;29;20443;-82
2022/02/09 08:04:04;;;;;;;8.73;7.87;;;9.40;99.90;;;;;;4903942;29;20427;-83
2022/02/09 08:06:30;;;;;;;9.23;7.57;;;10.30;99.90;;;;;;4901734;29;20729;-82
2022/02/09 08:09:00;;;;;;;9.93;9.13;;;9.50;99.90;;;;;;4900938;29;20436;-83
2022/02/09 08:11:37;;;;;;;11.23;10.00;;;9.90;99.90;;;;;;4899386;29;20546;-83
2022/02/09 08:35:49;;;;;;;7.80;7.10;;;11.20;99.90;;;;;;4920623;29;20470;-82
2022/02/09 08:38:30;;;;;;;9.18;8.35;;;9.70;99.90;;;;;;4912128;29;20445;-84
2022/02/09 08:40:56;;;;;;;9.17;8.27;;;9.90;99.90;;;;;;4903936;29;20199;-83
2022/02/09 08:43:22;;;;;;;12.40;8.63;;;9.50;99.90;;;;;;4906204;29;20467;-84
2022/02/09 08:45:47;;;;;;;9.13;8.13;;;9.60;99.90;;;;;;4899512;29;20488;-85
2022/02/09 08:48:31;;;;;;;8.83;8.00;;;9.30;99.90;;;;;;4908714;29;20438;-84
2022/02/09 08:50:56;;;;;;;8.13;7.43;;;11.20;99.90;;;;;;4909168;29;20447;-84
2022/02/09 08:53:22;;;;;;;8.53;6.70;;;10.20;99.90;;;;;;4911782;29;20555;-83
2022/02/09 08:55:48;;;;;;;6.13;5.60;;;11.30;99.90;;;;;;4907755;29;20421;-83
2022/02/09 08:58:19;;;;;;;7.33;6.83;;;10.20;99.90;;;;;;4903082;29;20244;-84
2022/02/09 09:00:57;;;;;;;7.30;6.60;;;8.70;99.90;;;;;;4903320;29;21007;-83
2022/02/09 09:03:26;;;;;;;7.03;6.43;;;10.30;99.90;;;;;;4906818;29;20446;-84
2022/02/09 09:05:55;;;;;;;5.77;5.37;;;10.40;99.90;;;;;;4904604;29;20435;-85
2022/02/09 09:08:47;;;;;;;7.20;6.60;;;10.60;99.90;;;;;;4907936;29;20474;-84
2022/02/09 10:14:12;;;;;;;2.83;2.83;;;12.20;99.90;;;;;;4919287;29;20439;-83
2022/02/09 10:32:46;;;;;;;4.20;4.00;;;12.10;99.90;;;;;;4932585;29;20493;-83
2022/02/09 10:35:39;;;;;;;4.40;3.50;;;11.20;99.90;;;;;;4912845;29;20519;-81
2022/02/09 10:38:29;;;;;;;4.20;3.97;;;11.20;99.90;;;;;;4910648;29;20531;-84
2022/02/09 10:41:13;;;;;;;2.47;2.33;;;11.10;99.90;;;;;;4895347;29;20440;-83
2022/02/09 10:43:41;;;;;;;4.07;3.97;;;11.10;99.90;;;;;;4911791;29;20455;-83
2022/02/09 10:46:10;;;;;;;4.30;4.00;;;12.90;99.90;;;;;;4896902;29;20458;-83
2022/02/09 10:48:49;;;;;;;4.63;4.33;;;11.10;99.90;;;;;;4903193;29;20669;-84
2022/02/09 10:51:20;;;;;;;4.10;3.70;;;11.10;99.90;;;;;;4915334;29;20419;-83
2022/02/09 10:54:06;;;;;;;3.90;3.60;;;12.80;99.90;;;;;;4930827;29;20517;-84
2022/02/09 10:56:34;;;;;;;5.40;4.17;;;12.80;99.90;;;;;;4915676;29;20466;-83
2022/02/09 10:59:22;;;;;;;4.20;3.90;;;11.20;99.90;;;;;;4920130;29;20448;-83
2022/02/09 11:01:50;;;;;;;5.43;4.93;;;11.20;99.90;;;;;;4895214;29;20887;-83
2022/02/09 11:04:21;;;;;;;4.67;4.27;;;13.40;99.90;;;;;;4905844;29;20471;-83
2022/02/09 11:06:48;;;;;;;4.00;3.70;;;11.30;99.90;;;;;;4914242;29;20423;-83
2022/02/09 11:09:16;;;;;;;4.67;4.40;;;11.80;99.90;;;;;;4930808;29;20443;-82
2022/02/09 11:11:42;;;;;;;6.20;4.27;;;11.40;99.90;;;;;;4934100;29;20968;-85
2022/02/09 11:14:22;;;;;;;4.70;4.40;;;11.80;99.90;;;;;;4931879;29;20416;-85
2022/02/09 11:17:01;;;;;;;4.57;4.38;;;11.20;99.90;;;;;;4913891;29;20467;-83
2022/02/09 11:19:40;;;;;;;4.55;4.25;;;11.10;99.90;;;;;;4229660;29;10001450;-84
2022/02/09 11:22:11;;;;;;;5.20;4.90;;;11.10;99.90;;;;;;4907970;29;20239;-84
2022/02/09 11:24:47;;;;;;;5.30;5.00;;;11.00;99.90;;;;;;4908102;29;20442;-83
2022/02/09 11:29:59;;;;;;;4.83;4.43;;;11.00;99.90;;;;;;4920061;29;20423;-84
2022/02/09 11:32:45;;;;;;;4.83;4.53;;;11.00;99.90;;;;;;4914658;29;20532;-83
2022/02/09 11:35:37;;;;;;;3.57;3.27;;;11.40;99.90;;;;;;4904754;29;20952;-80
2022/02/09 11:40:51;;;;;;;4.50;4.30;;;11.40;99.90;;;;;;4910143;29;20443;-82
2022/02/09 11:55:09;;;;;;;3.87;3.67;;;13.70;99.90;;;;;;4843776;29;20443;-82
2022/02/09 12:12:01;;;;;;;5.27;4.73;;;11.30;99.90;;;;;;4908518;29;20543;-83
2022/02/09 12:15:31;;;;;;;6.10;4.57;;;11.10;99.90;;;;;;4910405;29;20422;-82
2022/02/09 12:18:26;;;;;;;4.90;4.50;;;11.20;99.90;;;;;;4889367;29;20468;-82
2022/02/09 12:20:58;;;;;;;4.47;4.17;;;11.20;99.90;;;;;;4902203;29;20427;-81
2022/02/09 12:23:35;;;;;;;4.20;3.93;;;11.40;99.90;;;;;;4906955;29;20471;-81
2022/02/09 12:26:10;;;;;;;5.33;4.87;;;11.30;99.90;;;;;;4899858;29;20440;-81
2022/02/09 12:28:38;;;;;;;3.50;3.40;;;11.40;99.90;;;;;;4908345;29;20432;-82
2022/02/09 12:31:13;;;;;;;4.93;4.63;;;11.30;99.90;;;;;;4905607;29;20451;-81
2022/02/09 12:33:48;;;;;;;4.67;4.30;;;11.20;99.90;;;;;;4876266;29;20929;-83
2022/02/09 12:36:22;;;;;;;5.30;4.90;;;11.10;99.90;;;;;;4903808;29;20431;-81
2022/02/09 12:38:55;;;;;;;5.67;5.27;;;11.10;99.90;;;;;;4901233;29;20439;-82
2022/02/09 12:41:23;;;;;;;5.40;4.90;;;11.40;99.90;;;;;;4891262;29;20440;-82
2022/02/09 12:44:11;;;;;;;5.37;5.10;;;10.50;99.90;;;;;;4891445;29;20421;-81
2022/02/09 12:46:45;;;;;;;4.83;4.53;;;10.80;99.90;;;;;;4887973;29;20496;-83
2022/02/09 12:49:17;;;;;;;4.80;4.47;;;11.10;99.90;;;;;;4890874;29;20421;-82
2022/02/09 12:51:47;;;;;;;6.07;5.67;;;10.90;99.90;;;;;;4904568;29;20515;-84
2022/02/09 12:54:16;;;;;;;4.63;4.33;;;10.80;99.90;;;;;;4903378;29;20509;-83
2022/02/09 12:56:44;;;;;;;5.17;4.77;;;10.60;99.90;;;;;;4915830;29;20448;-86
2022/02/09 12:59:18;;;;;;;4.87;4.57;;;11.00;99.90;;;;;;4922435;29;20418;-83
2022/02/09 13:02:17;;;;;;;4.60;4.40;;;11.00;99.90;;;;;;4923885;29;20449;-82
2022/02/09 13:04:43;;;;;;;4.30;4.00;;;11.00;99.90;;;;;;4928813;29;20588;-82
2022/02/09 13:07:18;;;;;;;12.63;11.33;;;10.80;99.90;;;;;;4896794;29;20842;-83
2022/02/09 13:09:50;;;;;;;6.37;5.60;;;10.60;99.90;;;;;;4902970;29;20179;-82
2022/02/09 13:12:26;;;;;;;6.07;5.57;;;10.00;99.90;;;;;;4897218;29;20489;-84
2022/02/09 13:14:59;;;;;;;4.80;4.40;;;10.70;99.90;;;;;;4900691;29;20428;-84
2022/02/09 13:23:36;;;;;;;5.53;5.13;;;10.80;99.90;;;;;;4925690;29;20557;-82
2022/02/09 13:52:17;;;;;;;4.53;4.20;;;10.50;99.90;;;;;;4920307;29;20579;-81
2022/02/09 14:02:53;;;;;;;3.90;3.70;;;12.70;99.90;;;;;;4911335;29;20917;-84
2022/02/09 14:12:00;;;;;;;3.30;3.10;;;11.80;99.90;;;;;;4887261;29;20508;-84
2022/02/09 14:52:58;;;;;;;2.73;2.73;;;11.20;99.90;;;;;;4889758;29;20484;-84
2022/02/09 14:55:46;;;;;;;3.50;2.87;;;13.20;99.90;;;;;;4916590;29;20665;-84
2022/02/09 14:58:14;;;;;;;2.93;2.80;;;11.10;99.90;;;;;;4911612;29;20435;-85
2022/02/09 15:01:01;;;;;;;2.27;2.17;;;11.10;99.90;;;;;;4898040;29;20531;-81
2022/02/09 15:06:24;;;;;;;2.93;2.43;;;10.70;99.90;;;;;;4913831;29;20846;-83
2022/02/09 15:08:58;;;;;;;2.67;2.67;;;10.50;99.90;;;;;;4911536;29;20501;-83
2022/02/09 15:12:42;;;;;;;3.87;2.50;;;11.10;99.90;;;;;;4918338;29;20455;-85
2022/02/09 15:20:37;;;;;;;1.43;1.43;;;11.90;99.90;;;;;;4918300;29;20458;-83
2022/02/09 15:22:55;;;;;;;2.77;1.80;;;11.40;99.90;;;;;;4927097;29;20489;-84
2022/02/09 15:25:22;;;;;;;1.90;1.80;;;11.50;99.90;;;;;;4917819;29;20562;-83
2022/02/09 15:27:56;;;;;;;2.00;1.90;;;11.50;99.90;;;;;;4920898;29;20419;-85
2022/02/09 15:30:22;;;;;;;1.47;1.37;;;11.10;99.90;;;;;;4900282;29;20440;-82
2022/02/09 15:32:52;;;;;;;1.63;1.43;;;10.60;99.90;;;;;;4925749;29;21068;-81
2022/02/09 15:35:30;;;;;;;2.10;1.63;;;12.20;99.90;;;;;;4919180;29;20203;-83
2022/02/09 15:38:14;;;;;;;1.33;1.33;;;13.90;99.90;;;;;;4925901;29;20949;-83
2022/02/09 15:41:04;;;;;;;1.70;1.60;;;12.60;99.90;;;;;;4917534;29;20938;-83
2022/02/09 16:09:01;;;;;;;1.77;1.70;;;11.50;99.90;;;;;;4919906;29;20497;-82
2022/02/09 16:11:35;;;;;;;1.70;1.70;;;11.30;99.90;;;;;;4924997;29;21000;-84
2022/02/09 16:22:23;;;;;;;2.90;2.00;;;12.40;99.90;;;;;;4922265;29;20918;-84
2022/02/09 16:46:24;;;;;;;2.00;2.00;;;12.40;99.90;;;;;;4918404;29;20533;-84
2022/02/09 16:49:07;;;;;;;3.40;1.73;;;10.70;99.90;;;;;;4915493;29;20435;-82
2022/02/09 16:51:52;;;;;;;3.70;2.50;;;10.50;99.90;;;;;;4903367;29;20196;-83
2022/02/09 17:18:48;;;;;;;3.47;2.80;;;10.40;99.90;;;;;;4912566;29;20438;-81
2022/02/09 17:21:11;;;;;;;5.00;2.80;;;10.40;99.90;;;;;;4916674;29;20431;-82
2022/02/09 17:23:38;;;;;;;2.77;2.60;;;10.30;99.90;;;;;;4894676;29;20450;-83
2022/02/09 17:26:04;;;;;;;3.77;3.00;;;10.30;99.90;;;;;;4902116;29;20423;-82
2022/02/09 17:28:30;;;;;;;2.80;2.70;;;10.30;99.90;;;;;;4911709;29;20965;-83
2022/02/09 17:36:10;;;;;;;4.33;3.13;;;10.20;99.90;;;;;;4916837;29;20191;-82
2022/02/09 18:00:12;;;;;;;6.30;6.00;;;10.20;99.90;;;;;;4913217;29;20450;-82
2022/02/09 18:02:38;;;;;;;7.40;5.40;;;10.50;99.90;;;;;;4915669;29;20414;-81
2022/02/09 18:05:09;;;;;;;4.03;3.83;;;10.20;99.90;;;;;;4898263;29;20480;-82
2022/02/09 18:07:39;;;;;;;5.45;4.20;;;10.20;99.90;;;;;;4902562;29;20459;-82
2022/02/09 18:10:24;;;;;;;5.57;3.37;;;10.20;99.90;;;;;;4899865;29;20207;-82
2022/02/09 18:13:13;;;;;;;4.00;3.70;;;10.30;99.90;;;;;;4898789;29;20479;-81
2022/02/09 18:16:00;;;;;;;5.87;4.20;;;10.30;99.90;;;;;;4924269;29;20192;-80
2022/02/09 18:27:37;;;;;;;5.30;4.90;;;10.20;99.90;;;;;;4922499;29;20437;-82
2022/02/09 19:03:40;;;;;;;13.17;5.20;;;8.90;99.90;;;;;;4916584;29;20438;-84
2022/02/09 19:06:21;;;;;;;7.70;5.73;;;9.80;99.90;;;;;;4905004;29;20427;-83
2022/02/09 19:14:11;;;;;;;4.97;4.55;;;9.70;99.90;;;;;;4920317;29;20436;-84
2022/02/09 19:14:47;;;;;;;6.70;6.10;;;9.70;99.90;;;;;;4913678;29;20808;-82
2022/02/09 19:17:29;;;;;;;8.13;7.10;;;9.20;99.90;;;;;;4919864;29;20427;-82
2022/02/09 19:30:44;;;;;;;8.63;5.57;;;9.10;99.90;;;;;;4917265;29;20857;-82
2022/02/09 19:33:27;;;;;;;7.45;4.03;;;9.20;99.90;;;;;;4918542;29;20221;-81
2022/02/09 19:40:40;;;;;;;9.60;6.22;;;9.10;99.90;;;;;;4917442;29;20264;-83
2022/02/09 19:47:14;;;;;;;4.80;4.10;;;9.10;99.90;;;;;;4919444;29;20515;-84
2022/02/09 19:52:18;;;;;;;4.63;4.10;;;9.40;99.90;;;;;;4917091;29;20477;-82
2022/02/09 19:55:18;;;;;;;6.50;4.83;;;9.10;99.90;;;;;;4917891;29;20443;-83
2022/02/09 19:57:44;;;;;;;6.90;5.50;;;9.20;99.90;;;;;;4903850;29;20688;-82
2022/02/09 20:00:12;;;;;;;6.50;4.73;;;9.20;99.90;;;;;;4886735;29;20443;-82
2022/02/09 20:02:45;;;;;;;5.63;4.67;;;9.20;99.90;;;;;;4884656;29;20779;-82
2022/02/09 20:05:14;;;;;;;7.13;4.60;;;9.20;99.90;;;;;;4907338;29;20829;-82
2022/02/09 20:07:40;;;;;;;4.73;4.20;;;9.50;99.90;;;;;;4890035;29;20495;-83
2022/02/09 20:10:06;;;;;;;8.30;4.70;;;11.00;99.90;;;;;;4882713;29;20951;-84
2022/02/09 20:12:31;;;;;;;8.90;5.90;;;9.00;99.90;;;;;;4905360;29;20237;-83
2022/02/09 20:14:57;;;;;;;7.70;5.80;;;9.00;99.90;;;;;;4883953;29;20438;-83
2022/02/09 20:17:23;;;;;;;6.27;5.70;;;10.70;99.90;;;;;;4901989;29;20274;-83
2022/02/09 20:19:55;;;;;;;4.53;4.13;;;10.70;99.90;;;;;;4905658;29;20196;-83
2022/02/09 20:22:21;;;;;;;7.40;5.37;;;8.10;99.90;;;;;;4903348;29;20251;-83
2022/02/09 20:24:48;;;;;;;7.53;4.95;;;11.30;99.90;;;;;;4905989;29;20423;-84
2022/02/09 20:27:18;;;;;;;5.40;4.90;;;10.80;99.90;;;;;;4887327;29;20271;-83
2022/02/09 20:29:43;;;;;;;5.60;5.10;;;8.80;99.90;;;;;;4887165;29;20438;-84
2022/02/09 20:34:43;;;;;;;7.47;4.97;;;11.00;99.90;;;;;;4905607;29;20259;-83
2022/02/09 20:37:10;;;;;;;5.10;4.70;;;10.90;99.90;;;;;;4886978;29;20221;-84
2022/02/09 20:39:52;;;;;;;6.70;5.03;;;9.20;99.90;;;;;;4901071;29;20435;-84
2022/02/09 20:42:18;;;;;;;13.10;5.47;;;9.20;99.90;;;;;;4885000;29;20458;-83
2022/02/09 20:44:54;;;;;;;6.50;4.77;;;9.30;99.90;;;;;;4888434;29;20432;-84
2022/02/09 20:47:20;;;;;;;4.72;4.32;;;9.90;99.90;;;;;;4905028;29;20526;-84
2022/02/09 20:49:46;;;;;;;4.43;4.10;;;10.90;99.90;;;;;;4880862;29;20295;-83
2022/02/09 20:52:13;;;;;;;9.30;4.67;;;10.70;99.90;;;;;;4902622;29;20227;-84
2022/02/09 20:54:39;;;;;;;4.70;4.37;;;8.90;99.90;;;;;;4906617;29;20207;-82
2022/02/09 20:57:05;;;;;;;3.50;3.20;;;9.00;99.90;;;;;;4918929;29;20458;-82
2022/02/09 20:59:37;;;;;;;4.60;4.37;;;9.30;99.90;;;;;;4923727;29;20552;-82
2022/02/09 21:02:18;;;;;;;4.57;4.20;;;9.30;99.90;;;;;;4902182;29;20561;-83
2022/02/09 21:04:45;;;;;;;6.23;4.67;;;9.30;99.90;;;;;;4923063;29;20183;-82
2022/02/09 21:07:20;;;;;;;4.10;3.90;;;10.10;99.90;;;;;;4916914;29;20509;-83
2022/02/09 21:10:00;;;;;;;4.33;4.03;;;9.40;99.90;;;;;;4922065;29;20440;-82
2022/02/09 21:12:39;;;;;;;5.93;4.53;;;9.30;99.90;;;;;;4902698;29;20977;-83
2022/02/09 21:26:23;;;;;;;5.57;5.07;;;9.10;99.90;;;;;;4920654;29;20474;-83
2022/02/09 21:41:31;;;;;;;5.90;5.40;;;9.30;99.90;;;;;;4924816;29;20214;-83
2022/02/09 21:49:19;;;;;;;6.03;5.50;;;9.50;99.90;;;;;;4920126;29;20665;-84
2022/02/09 21:54:59;;;;;;;7.13;6.53;;;10.00;99.90;;;;;;4925582;29;20218;-82
2022/02/09 21:57:38;;;;;;;8.55;7.55;;;10.40;99.90;;;;;;4901926;29;20241;-83
2022/02/09 22:19:19;;;;;;;7.35;6.80;;;9.20;99.90;;;;;;4935195;29;20199;-83
2022/02/09 22:27:16;;;;;;;12.50;7.47;;;9.20;99.90;;;;;;4924026;29;20496;-84
2022/02/09 22:33:45;;;;;;;8.38;7.75;;;9.40;99.90;;;;;;4919406;29;20482;-83
2022/02/09 22:56:54;;;;;;;7.67;6.83;;;11.10;99.90;;;;;;4922742;29;20620;-83
2022/02/09 23:02:04;;;;;;;9.80;8.50;;;10.30;99.90;;;;;;4918794;29;20265;-83
2022/02/09 23:26:18;;;;;;;9.50;8.20;;;9.50;99.90;;;;;;4915801;29;20338;-82
2022/02/09 23:53:15;;;;;;;14.67;10.50;;;9.10;99.90;;;;;;4927482;29;20418;-84
2022/02/09 23:58:32;;;;;;;12.70;10.20;;;9.00;99.90;;;;;;4924048;29;20487;-84
